Time;durP1;ratioP1;P1;durP2;ratioP2;P2;SDS_P1;SDS_P2;PMS_P1;PMS_P2;Temp;Humidity;BMP_temperature;BMP_pressure;BME280_temperature;BME280_humidity;BME280_pressure;Samples;Min_cycle;Max_cycle;Signal;HPM_P1;HPM_P2
2023/03/16 00:02:09;;;;;;;16.20;2.30;;;-1.30;97.80;;;;;;4981626;28;20107;-71
2023/03/16 00:04:39;;;;;;;26.65;2.75;;;-1.40;97.70;;;;;;4986930;28;20042;-71
2023/03/16 00:07:08;;;;;;;14.40;1.70;;;-1.40;98.20;;;;;;4980922;28;20073;-71
2023/03/16 00:09:39;;;;;;;15.30;2.55;;;-1.40;98.50;;;;;;4982265;28;20054;-71
2023/03/16 00:12:14;;;;;;;15.43;2.50;;;-1.40;98.80;;;;;;4991838;28;20054;-71
2023/03/16 00:14:43;;;;;;;14.45;2.08;;;-1.50;98.60;;;;;;4976895;28;20074;-71
2023/03/16 00:17:17;;;;;;;8.85;2.10;;;-1.50;99.00;;;;;;4979336;28;20471;-71
2023/03/16 00:19:53;;;;;;;17.13;3.28;;;-1.50;98.70;;;;;;4978597;28;20089;-71
2023/03/16 00:22:23;;;;;;;17.23;2.58;;;-1.60;98.50;;;;;;4980487;28;20054;-71
2023/03/16 00:24:51;;;;;;;11.02;1.77;;;-1.60;98.50;;;;;;4981629;28;20069;-71
2023/03/16 00:27:21;;;;;;;10.07;2.05;;;-1.60;99.20;;;;;;4981337;28;20058;-71
2023/03/16 00:29:54;;;;;;;15.88;2.35;;;-1.70;98.80;;;;;;4982407;28;20418;-71
2023/03/16 00:32:27;;;;;;;12.70;1.95;;;-1.70;98.70;;;;;;4996534;28;20675;-71
2023/03/16 00:34:54;;;;;;;12.50;2.33;;;-1.80;98.80;;;;;;4982443;28;20077;-71
2023/03/16 00:37:22;;;;;;;10.82;2.40;;;-1.80;98.80;;;;;;4980780;28;20057;-71
2023/03/16 00:39:50;;;;;;;14.25;2.10;;;-1.90;98.90;;;;;;4982715;28;20042;-71
2023/03/16 00:42:18;;;;;;;12.35;2.33;;;-1.90;98.90;;;;;;4995130;28;20054;-71
2023/03/16 00:44:45;;;;;;;12.27;1.70;;;-1.90;99.30;;;;;;4981564;28;20081;-71
2023/03/16 00:47:15;;;;;;;15.68;1.90;;;-1.90;99.60;;;;;;4980576;28;20081;-71
2023/03/16 00:49:43;;;;;;;19.70;2.05;;;-1.90;99.70;;;;;;4982615;28;20062;-71
2023/03/16 00:52:14;;;;;;;16.30;1.58;;;-1.90;99.50;;;;;;4981004;28;20061;-70
2023/03/16 00:54:43;;;;;;;10.20;1.50;;;-2.00;99.60;;;;;;4982250;28;20061;-70
2023/03/16 00:57:17;;;;;;;6.78;1.40;;;-2.00;99.70;;;;;;4980308;28;20054;-70
2023/03/16 00:59:45;;;;;;;13.35;2.28;;;-2.10;99.60;;;;;;4977354;28;20513;-70
2023/03/16 01:02:13;;;;;;;8.98;1.73;;;-2.10;99.70;;;;;;4981522;28;20047;-70
2023/03/16 01:04:40;;;;;;;10.73;2.10;;;-2.10;99.80;;;;;;4996849;28;20050;-70
2023/03/16 01:07:11;;;;;;;14.07;1.73;;;-2.10;100.00;;;;;;4980391;28;20384;-71
2023/03/16 01:09:38;;;;;;;13.25;1.75;;;-2.10;100.00;;;;;;4990415;28;20042;-70
2023/03/16 01:12:13;;;;;;;16.60;2.15;;;-2.10;100.00;;;;;;4980714;28;20050;-70
2023/03/16 01:14:41;;;;;;;17.08;2.25;;;-2.10;100.00;;;;;;4977123;28;20103;-70
2023/03/16 01:17:09;;;;;;;10.85;2.15;;;-2.20;100.00;;;;;;4979318;28;20054;-70
2023/03/16 01:19:36;;;;;;;17.08;2.10;;;-2.30;100.00;;;;;;4981417;28;20530;-70
2023/03/16 01:22:08;;;;;;;19.35;2.45;;;-2.30;100.00;;;;;;4979743;28;20046;-70
2023/03/16 01:24:37;;;;;;;18.02;2.22;;;-2.30;100.00;;;;;;4983213;28;20054;-70
2023/03/16 01:27:04;;;;;;;8.23;1.90;;;-2.30;100.00;;;;;;4976003;28;20058;-70
2023/03/16 01:29:32;;;;;;;2.33;1.20;;;-2.30;100.00;;;;;;4979580;28;20062;-70
2023/03/16 01:32:00;;;;;;;14.77;2.33;;;-2.30;100.00;;;;;;4980868;28;20104;-70
2023/03/16 01:34:27;;;;;;;11.95;2.45;;;-2.40;100.00;;;;;;4981272;28;20050;-70
2023/03/16 01:36:54;;;;;;;21.00;3.17;;;-2.40;100.00;;;;;;4979446;28;20438;-70
2023/03/16 01:39:21;;;;;;;9.05;1.48;;;-2.40;100.00;;;;;;4996123;28;20066;-70
2023/03/16 01:41:48;;;;;;;17.73;2.58;;;-2.40;100.00;;;;;;4980804;28;20070;-70
2023/03/16 01:44:27;;;;;;;11.93;2.38;;;-2.40;100.00;;;;;;4980990;28;20410;-71
2023/03/16 01:46:53;;;;;;;14.98;2.13;;;-2.50;100.00;;;;;;4979802;28;20054;-71
2023/03/16 01:49:28;;;;;;;10.48;2.13;;;-2.50;100.00;;;;;;4981449;28;20225;-71
2023/03/16 01:52:06;;;;;;;11.02;1.27;;;-2.50;100.00;;;;;;4975635;28;20062;-71
2023/03/16 01:54:41;;;;;;;16.60;1.95;;;-2.50;100.00;;;;;;4979474;28;20687;-71
2023/03/16 01:57:11;;;;;;;16.67;2.25;;;-2.40;100.00;;;;;;4978629;28;20057;-71
2023/03/16 01:59:43;;;;;;;17.67;2.55;;;-2.50;100.00;;;;;;4980007;28;20427;-70
2023/03/16 02:02:12;;;;;;;9.00;1.98;;;-2.50;100.00;;;;;;4978212;28;20058;-70
2023/03/16 02:05:06;;;;;;;21.13;3.05;;;-2.50;100.00;;;;;;4981168;28;20046;-70
2023/03/16 02:07:39;;;;;;;10.25;2.05;;;-2.50;100.00;;;;;;4979286;28;20558;-70
2023/03/16 02:10:07;;;;;;;14.73;2.60;;;-2.50;100.00;;;;;;4979096;28;20058;-70
2023/03/16 02:12:35;;;;;;;9.70;1.73;;;-2.60;100.00;;;;;;4980880;28;20479;-70
2023/03/16 02:15:02;;;;;;;16.20;2.70;;;-2.60;100.00;;;;;;4979476;28;20050;-70
2023/03/16 02:17:30;;;;;;;22.35;2.83;;;-2.60;100.00;;;;;;4978774;28;20495;-70
2023/03/16 02:20:00;;;;;;;18.67;2.00;;;-2.60;100.00;;;;;;4976636;28;20046;-70
2023/03/16 02:22:27;;;;;;;10.82;3.20;;;-2.60;100.00;;;;;;4983727;28;20138;-70
2023/03/16 02:24:54;;;;;;;12.43;2.60;;;-2.60;100.00;;;;;;4989877;28;20053;-70
2023/03/16 02:27:36;;;;;;;14.60;2.63;;;-2.50;100.00;;;;;;4983642;28;20054;-71
2023/03/16 02:30:05;;;;;;;11.10;1.45;;;-2.60;100.00;;;;;;4995461;28;20176;-70
2023/03/16 02:32:33;;;;;;;27.60;2.67;;;-2.60;100.00;;;;;;4983903;28;20058;-70
2023/03/16 02:35:01;;;;;;;12.90;2.35;;;-2.60;100.00;;;;;;4984404;28;20054;-70
2023/03/16 02:37:28;;;;;;;6.65;2.00;;;-2.60;100.00;;;;;;4983465;28;20479;-70
2023/03/16 02:39:55;;;;;;;13.73;2.22;;;-2.60;100.00;;;;;;4998362;28;20050;-70
2023/03/16 02:42:25;;;;;;;25.05;2.55;;;-2.50;100.00;;;;;;4984596;28;20054;-70
2023/03/16 02:44:57;;;;;;;6.20;1.88;;;-2.50;100.00;;;;;;4983783;28;20096;-70
2023/03/16 02:47:40;;;;;;;8.23;2.40;;;-2.50;100.00;;;;;;4998599;28;20306;-70
2023/03/16 02:50:11;;;;;;;16.40;2.08;;;-2.50;100.00;;;;;;4982836;28;20058;-70
2023/03/16 02:52:38;;;;;;;35.22;2.35;;;-2.60;100.00;;;;;;4981164;28;20569;-70
2023/03/16 02:55:06;;;;;;;18.98;2.03;;;-2.60;100.00;;;;;;4982382;28;20418;-70
2023/03/16 02:57:34;;;;;;;19.60;2.75;;;-2.50;100.00;;;;;;4984435;28;20153;-70
2023/03/16 03:00:00;;;;;;;11.30;2.92;;;-2.50;100.00;;;;;;4982207;28;20425;-71
2023/03/16 03:02:27;;;;;;;19.10;2.45;;;-2.50;100.00;;;;;;4983637;28;20377;-70
2023/03/16 03:04:54;;;;;;;15.60;2.60;;;-2.50;100.00;;;;;;4982396;28;20056;-71
2023/03/16 03:07:21;;;;;;;11.43;1.80;;;-2.50;100.00;;;;;;4998359;28;20081;-70
2023/03/16 03:09:48;;;;;;;10.85;2.65;;;-2.60;100.00;;;;;;4982890;28;20077;-71
2023/03/16 03:12:14;;;;;;;5.38;2.00;;;-2.60;100.00;;;;;;4979733;28;20046;-70
2023/03/16 03:14:43;;;;;;;16.83;2.42;;;-2.60;100.00;;;;;;4982414;28;20050;-70
2023/03/16 03:17:12;;;;;;;8.95;1.98;;;-2.70;100.00;;;;;;4982546;28;20054;-70
2023/03/16 03:19:38;;;;;;;15.27;2.83;;;-2.70;100.00;;;;;;4994699;28;20433;-71
2023/03/16 03:22:05;;;;;;;14.48;2.35;;;-2.70;100.00;;;;;;4982659;28;20046;-70
2023/03/16 03:24:33;;;;;;;6.07;1.75;;;-2.70;100.00;;;;;;5000055;28;20100;-70
2023/03/16 03:27:04;;;;;;;8.30;1.92;;;-2.70;100.00;;;;;;4984579;28;20177;-70
2023/03/16 03:29:34;;;;;;;9.27;2.40;;;-2.70;100.00;;;;;;4982641;28;20170;-71
2023/03/16 03:32:03;;;;;;;24.85;2.97;;;-2.70;100.00;;;;;;4982316;28;20340;-71
2023/03/16 03:34:30;;;;;;;13.63;2.35;;;-2.70;100.00;;;;;;4981712;28;20066;-70
2023/03/16 03:36:58;;;;;;;12.43;2.97;;;-2.80;100.00;;;;;;4982451;28;20055;-70
2023/03/16 03:39:25;;;;;;;20.52;4.05;;;-2.80;100.00;;;;;;4983157;28;20046;-70
2023/03/16 03:41:53;;;;;;;10.73;2.42;;;-2.80;100.00;;;;;;4983445;28;20137;-70
2023/03/16 03:44:21;;;;;;;16.52;2.60;;;-2.90;100.00;;;;;;4981914;28;20435;-70
2023/03/16 03:46:48;;;;;;;20.58;2.55;;;-2.90;100.00;;;;;;4981894;28;20054;-70
2023/03/16 03:49:15;;;;;;;5.65;2.40;;;-2.90;100.00;;;;;;4981038;28;20316;-70
2023/03/16 03:51:43;;;;;;;25.30;2.58;;;-2.90;100.00;;;;;;4978217;28;20360;-70
2023/03/16 03:54:10;;;;;;;5.63;2.28;;;-3.00;100.00;;;;;;4997226;28;20060;-70
2023/03/16 03:56:37;;;;;;;16.95;2.30;;;-3.00;100.00;;;;;;4997382;28;20058;-70
2023/03/16 03:59:03;;;;;;;10.95;1.65;;;-3.00;100.00;;;;;;4982051;28;20054;-70
2023/03/16 04:01:30;;;;;;;18.50;2.45;;;-3.00;100.00;;;;;;4982808;28;20317;-70
2023/03/16 04:03:57;;;;;;;11.98;2.95;;;-3.00;100.00;;;;;;4981530;28;20051;-70
2023/03/16 04:06:24;;;;;;;23.95;2.78;;;-3.00;100.00;;;;;;4982348;28;20665;-70
2023/03/16 04:08:53;;;;;;;9.73;2.72;;;-3.00;100.00;;;;;;4980885;28;21051;-70
2023/03/16 04:11:20;;;;;;;18.42;2.53;;;-3.00;100.00;;;;;;4981442;28;20104;-70
2023/03/16 04:13:49;;;;;;;10.73;2.38;;;-3.00;100.00;;;;;;4982302;28;20050;-70
2023/03/16 04:16:16;;;;;;;16.33;2.10;;;-3.10;100.00;;;;;;4980582;28;20064;-70
2023/03/16 04:18:44;;;;;;;8.80;2.58;;;-3.10;100.00;;;;;;4995995;28;20050;-70
2023/03/16 04:21:16;;;;;;;14.85;2.50;;;-3.10;100.00;;;;;;4996872;28;20053;-70
2023/03/16 04:23:43;;;;;;;10.20;1.90;;;-3.10;100.00;;;;;;4983154;28;20047;-70
2023/03/16 04:26:10;;;;;;;10.00;2.67;;;-3.10;100.00;;;;;;4981893;28;20078;-70
2023/03/16 04:28:37;;;;;;;17.52;2.95;;;-3.20;100.00;;;;;;4996524;28;20050;-70
2023/03/16 04:31:06;;;;;;;27.25;2.10;;;-3.20;100.00;;;;;;4979425;28;20072;-70
2023/03/16 04:33:35;;;;;;;10.75;2.60;;;-3.20;100.00;;;;;;4982763;28;20247;-70
2023/03/16 04:36:05;;;;;;;8.02;2.78;;;-3.10;100.00;;;;;;4996108;28;20058;-70
2023/03/16 04:38:33;;;;;;;13.10;2.72;;;-3.10;100.00;;;;;;4982389;28;20558;-71
2023/03/16 04:41:01;;;;;;;14.70;2.28;;;-3.20;100.00;;;;;;4981823;28;20149;-71
2023/03/16 04:43:29;;;;;;;6.18;1.98;;;-3.20;100.00;;;;;;4996011;28;20143;-70
2023/03/16 04:45:55;;;;;;;14.07;2.83;;;-3.10;100.00;;;;;;4994203;28;20058;-70
2023/03/16 04:48:24;;;;;;;28.63;2.65;;;-3.10;100.00;;;;;;4981979;28;20050;-70
2023/03/16 04:50:51;;;;;;;14.63;2.10;;;-3.10;100.00;;;;;;4980963;28;20137;-70
2023/03/16 04:53:18;;;;;;;17.85;2.65;;;-3.20;100.00;;;;;;4996308;28;20057;-70
2023/03/16 04:55:45;;;;;;;11.90;2.65;;;-3.20;100.00;;;;;;4980447;28;20645;-71
2023/03/16 04:58:12;;;;;;;19.10;2.65;;;-3.20;100.00;;;;;;4981650;28;20054;-70
2023/03/16 05:00:40;;;;;;;19.95;2.63;;;-3.20;100.00;;;;;;4981170;28;20318;-70
2023/03/16 05:03:11;;;;;;;9.77;2.95;;;-3.20;100.00;;;;;;4981487;28;20506;-70
2023/03/16 05:05:38;;;;;;;27.38;3.38;;;-3.20;100.00;;;;;;4979237;28;20408;-70
2023/03/16 05:08:06;;;;;;;15.07;2.97;;;-3.20;100.00;;;;;;4982060;28;20058;-70
2023/03/16 05:10:33;;;;;;;8.77;2.10;;;-3.20;100.00;;;;;;4981224;28;20060;-71
2023/03/16 05:13:00;;;;;;;15.13;2.65;;;-3.20;100.00;;;;;;4982253;28;20058;-71
2023/03/16 05:15:27;;;;;;;10.07;2.38;;;-3.20;100.00;;;;;;4980773;28;20236;-70
2023/03/16 05:17:57;;;;;;;18.30;2.92;;;-3.10;100.00;;;;;;4980397;28;20061;-71
2023/03/16 05:20:24;;;;;;;21.30;3.22;;;-3.20;100.00;;;;;;4980588;28;20047;-71
2023/03/16 05:22:51;;;;;;;14.20;3.35;;;-3.20;100.00;;;;;;4996313;28;20081;-71
2023/03/16 05:25:19;;;;;;;8.88;2.80;;;-3.20;100.00;;;;;;4995446;28;20050;-70
2023/03/16 05:27:49;;;;;;;17.92;3.03;;;-3.30;100.00;;;;;;4977801;28;20042;-71
2023/03/16 05:30:17;;;;;;;19.00;2.72;;;-3.20;100.00;;;;;;4979399;28;20042;-71
2023/03/16 05:32:44;;;;;;;9.50;2.75;;;-3.20;100.00;;;;;;4979966;28;20042;-70
2023/03/16 05:35:12;;;;;;;12.65;2.85;;;-3.20;100.00;;;;;;4978219;28;20068;-70
2023/03/16 05:37:42;;;;;;;25.35;3.83;;;-3.20;100.00;;;;;;4979242;28;20093;-70
2023/03/16 05:40:18;;;;;;;19.30;2.72;;;-3.20;100.00;;;;;;4976210;28;20694;-71
2023/03/16 05:42:46;;;;;;;14.95;3.13;;;-3.20;100.00;;;;;;4980917;28;20046;-70
2023/03/16 05:45:15;;;;;;;17.40;3.15;;;-3.20;100.00;;;;;;4994897;28;20054;-70
2023/03/16 05:47:43;;;;;;;15.93;2.83;;;-3.20;100.00;;;;;;4981228;28;20051;-70
2023/03/16 05:50:11;;;;;;;24.15;3.08;;;-3.10;100.00;;;;;;4979706;28;20046;-70
2023/03/16 05:52:38;;;;;;;17.55;2.60;;;-3.10;100.00;;;;;;4977331;28;20051;-70
2023/03/16 05:55:08;;;;;;;18.70;2.90;;;-3.10;100.00;;;;;;4980803;28;20050;-70
2023/03/16 05:57:35;;;;;;;10.88;2.70;;;-3.10;100.00;;;;;;4984341;28;20046;-71
2023/03/16 06:00:15;;;;;;;10.02;2.83;;;-3.10;100.00;;;;;;4997657;28;20057;-71
2023/03/16 06:02:45;;;;;;;15.55;2.83;;;-3.10;100.00;;;;;;4980797;28;20054;-71
2023/03/16 06:05:13;;;;;;;20.40;2.63;;;-3.10;100.00;;;;;;4985290;28;20050;-71
2023/03/16 06:07:40;;;;;;;15.32;2.92;;;-3.00;100.00;;;;;;4982200;28;20053;-71
2023/03/16 06:10:08;;;;;;;11.98;3.30;;;-3.00;100.00;;;;;;4983192;28;20133;-74
2023/03/16 06:12:35;;;;;;;14.82;2.67;;;-2.90;100.00;;;;;;4987656;28;20073;-70
2023/03/16 06:15:06;;;;;;;10.68;2.50;;;-2.80;100.00;;;;;;4985438;28;20810;-71
2023/03/16 06:17:34;;;;;;;20.02;2.92;;;-2.70;100.00;;;;;;4998838;28;20082;-70
2023/03/16 06:20:02;;;;;;;18.20;2.63;;;-2.60;100.00;;;;;;4983458;28;20113;-71
2023/03/16 06:22:29;;;;;;;13.13;2.88;;;-2.60;100.00;;;;;;4985472;28;20471;-72
2023/03/16 06:24:56;;;;;;;16.90;3.33;;;-2.50;100.00;;;;;;4989307;28;20053;-72
2023/03/16 06:27:25;;;;;;;22.98;3.90;;;-2.40;100.00;;;;;;4985033;28;20057;-70
2023/03/16 06:29:52;;;;;;;22.02;3.38;;;-2.30;100.00;;;;;;4982686;28;20072;-71
2023/03/16 06:32:19;;;;;;;22.50;4.22;;;-2.20;100.00;;;;;;4994952;28;20050;-70
2023/03/16 06:34:46;;;;;;;11.50;3.40;;;-1.80;100.00;;;;;;4984781;28;20046;-71
2023/03/16 06:37:13;;;;;;;30.92;4.13;;;-0.70;100.00;;;;;;4982469;28;20062;-72
2023/03/16 06:39:40;;;;;;;22.85;3.72;;;0.30;100.00;;;;;;4983578;28;20050;-72
2023/03/16 06:42:07;;;;;;;19.55;3.40;;;1.30;97.20;;;;;;4983347;28;20054;-75
2023/03/16 06:44:34;;;;;;;9.43;2.90;;;2.30;92.40;;;;;;4997346;28;20046;-70
2023/03/16 06:47:00;;;;;;;17.42;3.05;;;3.20;87.70;;;;;;4983527;28;20509;-69
2023/03/16 06:49:27;;;;;;;8.75;2.40;;;4.10;82.90;;;;;;4982153;28;20054;-70
2023/03/16 06:51:55;;;;;;;12.93;3.03;;;4.90;79.50;;;;;;4982337;28;20054;-70
2023/03/16 06:54:22;;;;;;;13.98;3.00;;;5.50;76.80;;;;;;4983977;28;20066;-70
2023/03/16 06:56:49;;;;;;;9.35;3.22;;;6.20;74.10;;;;;;4983063;28;20050;-70
2023/03/16 06:59:15;;;;;;;9.10;2.53;;;6.70;71.40;;;;;;4984137;28;20050;-70
2023/03/16 07:01:43;;;;;;;8.75;2.67;;;7.10;69.80;;;;;;4983890;28;20053;-71
2023/03/16 07:04:11;;;;;;;19.83;3.15;;;7.10;68.90;;;;;;4984354;28;20057;-71
2023/03/16 07:06:38;;;;;;;16.45;2.88;;;7.00;69.50;;;;;;4983608;28;20061;-70
2023/03/16 07:09:05;;;;;;;11.32;2.80;;;7.60;67.80;;;;;;4984077;28;20069;-70
2023/03/16 07:11:32;;;;;;;15.95;3.33;;;8.20;66.80;;;;;;4982880;28;20570;-71
2023/03/16 07:13:59;;;;;;;14.52;3.78;;;8.50;65.00;;;;;;4999085;28;20057;-71
2023/03/16 07:16:26;;;;;;;12.98;2.58;;;8.80;64.80;;;;;;4982765;28;20050;-71
2023/03/16 07:18:53;;;;;;;11.80;2.90;;;9.20;63.40;;;;;;4999028;28;20444;-71
2023/03/16 07:21:20;;;;;;;8.63;2.83;;;9.30;63.30;;;;;;4996582;28;20046;-71
2023/03/16 07:23:47;;;;;;;11.00;2.72;;;9.80;62.30;;;;;;4984076;28;20265;-71
2023/03/16 07:26:14;;;;;;;12.43;2.63;;;9.80;61.80;;;;;;4989970;28;20053;-71
2023/03/16 07:28:41;;;;;;;9.93;2.80;;;10.20;60.30;;;;;;4996643;28;20050;-71
2023/03/16 07:31:08;;;;;;;16.70;3.75;;;10.30;59.70;;;;;;4981374;28;20054;-72
2023/03/16 07:33:35;;;;;;;9.30;2.40;;;10.60;59.60;;;;;;4991783;28;20448;-71
2023/03/16 07:36:03;;;;;;;11.80;3.40;;;10.90;58.20;;;;;;4995584;28;20054;-71
2023/03/16 07:38:31;;;;;;;11.43;2.55;;;11.10;58.00;;;;;;4997458;28;20150;-71
2023/03/16 07:41:01;;;;;;;8.02;2.38;;;11.40;57.90;;;;;;4983025;28;20050;-71
2023/03/16 07:43:28;;;;;;;6.00;2.30;;;11.70;56.70;;;;;;4979787;28;20050;-71
2023/03/16 07:45:55;;;;;;;9.10;2.80;;;11.90;56.30;;;;;;4981091;28;20046;-71
2023/03/16 07:48:22;;;;;;;13.75;2.67;;;12.30;55.90;;;;;;4982250;28;20129;-71
2023/03/16 07:50:49;;;;;;;8.52;2.40;;;12.70;54.80;;;;;;4996797;28;20495;-71
2023/03/16 07:53:16;;;;;;;14.23;2.78;;;12.60;55.10;;;;;;4980880;28;20050;-71
2023/03/16 07:55:43;;;;;;;8.07;2.30;;;13.00;54.70;;;;;;4980498;28;20046;-71
2023/03/16 07:58:11;;;;;;;17.67;2.95;;;13.30;54.70;;;;;;4982727;28;20050;-71
2023/03/16 08:00:39;;;;;;;6.07;2.20;;;12.50;54.00;;;;;;4997247;28;20064;-71
2023/03/16 08:03:06;;;;;;;8.70;2.55;;;12.20;55.60;;;;;;4997272;28;20078;-71
2023/03/16 08:05:32;;;;;;;12.70;2.72;;;11.70;56.40;;;;;;4996461;28;20050;-71
2023/03/16 08:08:00;;;;;;;13.82;3.20;;;11.80;56.50;;;;;;4982075;28;20479;-71
2023/03/16 08:10:28;;;;;;;15.30;3.08;;;12.30;56.80;;;;;;4981179;28;20054;-71
2023/03/16 08:12:55;;;;;;;13.80;2.42;;;13.10;55.50;;;;;;4982893;28;20050;-69
2023/03/16 08:15:23;;;;;;;20.48;3.22;;;13.40;54.20;;;;;;4996716;28;20058;-70
2023/03/16 08:17:51;;;;;;;11.18;3.13;;;14.00;53.00;;;;;;4982257;28;20133;-70
2023/03/16 08:20:18;;;;;;;7.00;1.98;;;14.20;51.80;;;;;;4981138;28;20097;-69
2023/03/16 08:22:45;;;;;;;5.35;1.73;;;14.50;52.40;;;;;;4995710;28;20153;-72
2023/03/16 08:25:13;;;;;;;9.02;2.08;;;14.40;51.90;;;;;;4980340;28;20410;-70
2023/03/16 08:27:41;;;;;;;13.23;2.55;;;15.10;51.20;;;;;;4979470;28;20054;-70
2023/03/16 08:30:10;;;;;;;16.10;2.03;;;15.40;51.40;;;;;;4979730;28;20101;-70
2023/03/16 08:32:41;;;;;;;6.28;1.80;;;15.50;49.50;;;;;;4979435;28;20105;-70
2023/03/16 08:35:12;;;;;;;10.18;2.08;;;16.00;51.40;;;;;;4982451;28;20069;-70
2023/03/16 08:37:40;;;;;;;12.73;2.10;;;16.40;50.00;;;;;;4979737;28;20058;-69
2023/03/16 08:40:09;;;;;;;14.07;2.30;;;16.20;48.00;;;;;;4979885;28;20061;-70
2023/03/16 08:42:40;;;;;;;11.20;2.50;;;15.80;48.20;;;;;;4982537;28;20082;-70
2023/03/16 08:45:11;;;;;;;13.00;2.00;;;15.40;48.90;;;;;;4982320;28;20419;-70
2023/03/16 08:47:40;;;;;;;11.32;2.50;;;14.90;49.70;;;;;;4981791;28;20050;-70
2023/03/16 08:50:08;;;;;;;19.60;2.53;;;14.80;50.70;;;;;;4982039;28;20093;-70
2023/03/16 08:52:36;;;;;;;8.43;2.42;;;14.60;49.60;;;;;;4982122;28;20084;-70
2023/03/16 08:55:04;;;;;;;11.35;2.28;;;14.20;51.10;;;;;;4982459;28;20054;-70
2023/03/16 08:57:32;;;;;;;16.20;2.35;;;14.00;51.50;;;;;;4981445;28;20047;-70
2023/03/16 09:00:00;;;;;;;10.45;2.30;;;13.70;50.00;;;;;;4981272;28;20046;-70
2023/03/16 09:02:27;;;;;;;12.20;3.00;;;13.10;52.10;;;;;;4982583;28;20050;-70
2023/03/16 09:04:55;;;;;;;7.55;2.17;;;12.70;54.50;;;;;;4980375;28;20058;-70
2023/03/16 09:07:22;;;;;;;13.48;2.15;;;12.20;54.50;;;;;;4981397;28;20046;-70
2023/03/16 09:09:49;;;;;;;10.27;1.75;;;12.80;53.80;;;;;;4980148;28;20050;-69
2023/03/16 09:12:16;;;;;;;14.13;1.95;;;13.20;54.10;;;;;;4978079;28;20440;-69
2023/03/16 09:14:44;;;;;;;9.15;1.88;;;14.30;53.40;;;;;;4983071;28;20077;-70
2023/03/16 09:17:11;;;;;;;13.70;2.08;;;15.40;51.50;;;;;;4996494;28;20050;-70
2023/03/16 09:19:39;;;;;;;8.35;1.95;;;15.90;49.60;;;;;;4980322;28;20112;-70
2023/03/16 09:22:18;;;;;;;9.52;1.98;;;16.60;47.90;;;;;;4979932;28;20161;-70
2023/03/16 09:24:47;;;;;;;19.45;2.05;;;16.80;48.40;;;;;;4986073;28;20470;-70
2023/03/16 09:27:15;;;;;;;15.20;3.55;;;16.70;47.20;;;;;;4981815;28;20050;-70
2023/03/16 09:29:42;;;;;;;12.02;2.38;;;16.20;48.60;;;;;;4995189;28;20082;-70
2023/03/16 09:32:09;;;;;;;16.13;3.00;;;16.50;48.10;;;;;;4980826;28;20422;-70
2023/03/16 09:34:36;;;;;;;7.63;2.08;;;16.80;47.50;;;;;;4996514;28;20484;-70
2023/03/16 09:37:04;;;;;;;15.02;3.15;;;17.30;45.80;;;;;;4980560;28;20054;-70
2023/03/16 09:39:30;;;;;;;11.40;1.98;;;17.60;46.40;;;;;;4982051;28;20144;-70
2023/03/16 09:42:17;;;;;;;9.82;2.05;;;18.20;46.00;;;;;;4979523;28;20085;-70
2023/03/16 09:45:12;;;;;;;11.65;2.03;;;18.20;43.90;;;;;;4981151;28;20070;-70
2023/03/16 09:47:40;;;;;;;15.88;2.55;;;18.00;43.70;;;;;;4980133;28;20061;-70
2023/03/16 09:50:15;;;;;;;11.38;1.88;;;18.20;44.50;;;;;;4979668;28;20440;-70
2023/03/16 09:53:05;;;;;;;9.88;2.13;;;18.40;45.40;;;;;;4981571;28;20437;-70
2023/03/16 09:55:37;;;;;;;9.07;2.25;;;18.60;42.20;;;;;;4979472;28;20061;-70
2023/03/16 09:58:19;;;;;;;9.07;2.03;;;18.80;41.80;;;;;;4978924;28;20062;-70
2023/03/16 10:01:04;;;;;;;7.90;2.33;;;19.30;41.70;;;;;;4994218;28;20050;-70
2023/03/16 10:03:57;;;;;;;6.85;1.67;;;19.90;41.90;;;;;;4980111;28;20242;-70
2023/03/16 10:06:25;;;;;;;10.93;1.98;;;19.90;41.40;;;;;;4974094;28;20180;-70
2023/03/16 10:08:59;;;;;;;10.93;2.10;;;20.10;41.60;;;;;;4981150;28;20060;-71
2023/03/16 10:11:31;;;;;;;10.15;1.98;;;20.40;40.60;;;;;;4980239;28;20054;-71
2023/03/16 10:14:39;;;;;;;15.57;2.30;;;20.90;39.90;;;;;;4996624;28;20462;-71
2023/03/16 10:17:12;;;;;;;11.50;3.00;;;20.70;39.70;;;;;;4980347;28;20081;-71
2023/03/16 10:19:56;;;;;;;17.63;3.60;;;21.20;39.20;;;;;;4975747;28;20050;-71
2023/03/16 10:22:25;;;;;;;12.55;2.38;;;21.20;39.00;;;;;;4995665;28;20081;-71
2023/03/16 10:25:22;;;;;;;9.95;1.95;;;21.50;39.50;;;;;;5001326;28;20486;-71
2023/03/16 10:27:50;;;;;;;6.07;1.60;;;21.70;37.20;;;;;;4979411;28;20733;-71
2023/03/16 10:30:32;;;;;;;8.45;1.77;;;21.80;37.40;;;;;;4980301;28;20601;-70
2023/03/16 10:33:12;;;;;;;17.85;2.03;;;22.30;36.00;;;;;;4980456;28;20058;-71
2023/03/16 10:35:48;;;;;;;4.43;1.35;;;22.20;37.30;;;;;;4980245;28;20565;-71
2023/03/16 10:38:48;;;;;;;14.32;1.92;;;22.40;35.10;;;;;;4978137;28;20065;-71
2023/03/16 10:41:20;;;;;;;5.53;1.52;;;22.30;36.90;;;;;;4969819;28;20115;-71
2023/03/16 10:43:57;;;;;;;8.57;1.55;;;22.00;35.10;;;;;;4999421;28;20054;-71
2023/03/16 10:46:26;;;;;;;9.60;1.90;;;22.10;36.00;;;;;;4996578;28;20054;-71
2023/03/16 10:48:59;;;;;;;7.00;1.88;;;22.30;36.80;;;;;;4999065;28;20136;-71
2023/03/16 10:51:45;;;;;;;14.13;2.13;;;22.70;37.90;;;;;;4983664;28;20574;-71
2023/03/16 10:54:18;;;;;;;14.00;1.50;;;22.90;37.80;;;;;;4980941;28;20054;-71
2023/03/16 10:56:45;;;;;;;7.63;1.45;;;22.90;36.80;;;;;;4982192;28;20050;-71
2023/03/16 10:59:33;;;;;;;7.10;1.50;;;22.90;35.00;;;;;;4999275;28;20061;-71
2023/03/16 11:02:16;;;;;;;10.55;1.88;;;22.80;34.20;;;;;;4998611;28;20732;-71
2023/03/16 11:04:42;;;;;;;5.07;1.20;;;22.60;33.30;;;;;;4977830;28;20050;-71
2023/03/16 11:07:19;;;;;;;6.57;1.75;;;22.50;34.70;;;;;;4982046;28;20175;-70
2023/03/16 11:09:47;;;;;;;13.48;1.50;;;22.50;32.70;;;;;;4976582;28;20057;-71
2023/03/16 11:12:20;;;;;;;9.98;1.70;;;21.90;33.90;;;;;;4983592;28;20081;-71
2023/03/16 11:14:47;;;;;;;5.82;1.38;;;21.50;35.10;;;;;;4997558;28;20430;-71
2023/03/16 11:17:35;;;;;;;7.30;1.33;;;21.70;33.20;;;;;;4998007;28;20058;-71
2023/03/16 11:20:16;;;;;;;9.05;2.40;;;21.30;33.40;;;;;;4984293;28;20581;-71
2023/03/16 11:22:46;;;;;;;4.55;1.40;;;21.00;34.30;;;;;;4982515;28;20053;-70
2023/03/16 11:25:46;;;;;;;5.75;1.50;;;21.20;36.00;;;;;;4981284;28;20053;-71
2023/03/16 11:28:34;;;;;;;6.43;1.25;;;20.80;33.50;;;;;;4986999;28;20052;-70
2023/03/16 11:31:26;;;;;;;3.60;1.10;;;20.00;35.10;;;;;;4997972;28;20062;-70
2023/03/16 11:33:56;;;;;;;4.93;1.20;;;20.10;37.30;;;;;;4970715;28;20058;-70
2023/03/16 11:36:43;;;;;;;8.88;1.17;;;20.50;35.40;;;;;;4997444;28;20422;-70
2023/03/16 11:39:42;;;;;;;7.88;1.40;;;21.00;35.70;;;;;;4997342;28;20057;-71
2023/03/16 11:42:45;;;;;;;9.30;1.92;;;21.40;33.00;;;;;;4983054;28;20077;-71
2023/03/16 11:45:31;;;;;;;6.93;1.98;;;21.10;33.30;;;;;;4995343;28;20051;-70
2023/03/16 11:48:16;;;;;;;8.70;1.52;;;21.10;35.40;;;;;;4998703;28;20049;-70
2023/03/16 11:50:48;;;;;;;6.75;1.50;;;21.30;36.10;;;;;;4996210;28;20056;-70
2023/03/16 11:53:40;;;;;;;15.57;1.77;;;21.90;34.10;;;;;;4996289;28;20840;-71
2023/03/16 11:56:24;;;;;;;11.88;2.00;;;21.30;34.40;;;;;;4977977;28;20527;-70
2023/03/16 11:59:06;;;;;;;12.07;2.60;;;20.30;32.20;;;;;;4981305;28;20529;-70
2023/03/16 12:02:06;;;;;;;5.18;1.00;;;19.20;33.80;;;;;;4976445;28;20078;-70
2023/03/16 12:04:41;;;;;;;16.40;1.73;;;18.40;34.90;;;;;;4976962;28;20042;-71
2023/03/16 12:07:19;;;;;;;3.65;1.13;;;18.10;35.80;;;;;;4996023;28;20350;-72
2023/03/16 12:09:58;;;;;;;18.88;1.83;;;17.90;36.20;;;;;;4977448;28;20056;-72
2023/03/16 12:12:34;;;;;;;7.40;1.30;;;17.60;35.90;;;;;;4980681;28;20554;-70
2023/03/16 12:15:37;;;;;;;8.63;1.52;;;17.30;39.40;;;;;;4982057;28;20423;-70
2023/03/16 12:18:16;;;;;;;7.43;1.63;;;17.30;37.00;;;;;;4959895;28;20287;-70
2023/03/16 12:20:49;;;;;;;4.80;1.20;;;18.10;36.80;;;;;;4982003;28;20046;-70
2023/03/16 12:23:42;;;;;;;6.40;1.23;;;18.30;36.00;;;;;;4980805;28;20050;-70
2023/03/16 12:26:11;;;;;;;3.28;1.48;;;18.10;37.10;;;;;;4978688;28;20534;-70
2023/03/16 12:28:41;;;;;;;7.90;1.52;;;17.60;35.90;;;;;;4982627;28;20513;-70
2023/03/16 12:31:46;;;;;;;10.27;1.70;;;18.00;37.60;;;;;;4980790;28;20059;-70
2023/03/16 12:35:01;;;;;;;4.35;1.30;;;18.90;37.40;;;;;;4954003;28;20054;-70
2023/03/16 12:37:34;;;;;;;7.18;1.60;;;19.50;33.70;;;;;;4975920;28;20353;-71
2023/03/16 12:40:07;;;;;;;13.75;1.52;;;20.00;33.50;;;;;;4997497;28;20046;-71
2023/03/16 12:43:00;;;;;;;8.18;1.75;;;20.10;32.90;;;;;;4996492;28;20053;-71
2023/03/16 12:45:36;;;;;;;5.35;1.55;;;20.00;34.10;;;;;;4980209;28;20145;-71
2023/03/16 12:48:11;;;;;;;10.82;1.83;;;20.00;33.00;;;;;;4992943;28;20101;-71
2023/03/16 12:50:54;;;;;;;10.25;1.92;;;19.10;33.00;;;;;;4979909;28;20238;-71
2023/03/16 12:53:27;;;;;;;8.00;2.28;;;18.60;32.00;;;;;;4994438;28;20554;-71
2023/03/16 12:55:56;;;;;;;7.88;2.00;;;17.50;34.00;;;;;;4981044;28;20055;-71
2023/03/16 12:58:25;;;;;;;9.45;1.65;;;17.10;35.70;;;;;;4979871;28;20396;-71